sensor_id;sensor_type;location;lat;lon;timestamp;temperature;humidity
51863;DHT22;37900;52.996;6.278;2023-04-25T00:00:35;17.00;91.90
51863;DHT22;37900;52.996;6.278;2023-04-25T00:03:01;17.00;91.90
51863;DHT22;37900;52.996;6.278;2023-04-25T00:05:27;17.10;91.90
51863;DHT22;37900;52.996;6.278;2023-04-25T00:07:53;17.00;91.80
51863;DHT22;37900;52.996;6.278;2023-04-25T00:10:20;17.00;91.80
51863;DHT22;37900;52.996;6.278;2023-04-25T00:12:46;17.00;91.80
51863;DHT22;37900;52.996;6.278;2023-04-25T00:15:12;17.00;91.70
51863;DHT22;37900;52.996;6.278;2023-04-25T00:17:38;17.00;91.70
51863;DHT22;37900;52.996;6.278;2023-04-25T00:20:05;17.00;91.70
51863;DHT22;37900;52.996;6.278;2023-04-25T00:22:32;17.00;91.70
51863;DHT22;37900;52.996;6.278;2023-04-25T00:25:00;17.00;91.70
51863;DHT22;37900;52.996;6.278;2023-04-25T00:27:26;17.00;91.70
51863;DHT22;37900;52.996;6.278;2023-04-25T00:29:52;17.00;91.60
51863;DHT22;37900;52.996;6.278;2023-04-25T00:32:17;17.00;91.60
51863;DHT22;37900;52.996;6.278;2023-04-25T00:34:43;17.00;91.60
51863;DHT22;37900;52.996;6.278;2023-04-25T00:37:09;17.00;91.60
51863;DHT22;37900;52.996;6.278;2023-04-25T00:39:35;17.00;91.80
51863;DHT22;37900;52.996;6.278;2023-04-25T00:42:02;17.00;91.80
51863;DHT22;37900;52.996;6.278;2023-04-25T00:44:30;16.90;91.50
51863;DHT22;37900;52.996;6.278;2023-04-25T00:46:57;17.00;91.50
51863;DHT22;37900;52.996;6.278;2023-04-25T00:49:23;16.90;91.50
51863;DHT22;37900;52.996;6.278;2023-04-25T00:51:49;16.90;91.40
51863;DHT22;37900;52.996;6.278;2023-04-25T00:54:15;16.90;91.40
51863;DHT22;37900;52.996;6.278;2023-04-25T00:56:41;16.90;91.40
51863;DHT22;37900;52.996;6.278;2023-04-25T00:59:09;16.90;91.40
51863;DHT22;37900;52.996;6.278;2023-04-25T01:01:35;16.90;91.40
51863;DHT22;37900;52.996;6.278;2023-04-25T01:04:01;16.90;91.30
51863;DHT22;37900;52.996;6.278;2023-04-25T01:06:27;16.90;91.30
51863;DHT22;37900;52.996;6.278;2023-04-25T01:08:53;16.90;91.30
51863;DHT22;37900;52.996;6.278;2023-04-25T01:11:19;16.90;91.30
51863;DHT22;37900;52.996;6.278;2023-04-25T01:13:45;16.90;91.30
51863;DHT22;37900;52.996;6.278;2023-04-25T01:16:11;16.90;91.20
51863;DHT22;37900;52.996;6.278;2023-04-25T01:18:39;16.90;91.20
51863;DHT22;37900;52.996;6.278;2023-04-25T01:21:10;16.90;91.20
51863;DHT22;37900;52.996;6.278;2023-04-25T01:23:37;16.90;91.20
51863;DHT22;37900;52.996;6.278;2023-04-25T01:26:04;16.90;91.20
51863;DHT22;37900;52.996;6.278;2023-04-25T01:28:30;16.90;91.20
51863;DHT22;37900;52.996;6.278;2023-04-25T01:30:57;16.90;91.10
51863;DHT22;37900;52.996;6.278;2023-04-25T01:33:23;16.90;91.10
51863;DHT22;37900;52.996;6.278;2023-04-25T01:35:48;16.80;91.10
51863;DHT22;37900;52.996;6.278;2023-04-25T01:38:14;16.90;91.10
51863;DHT22;37900;52.996;6.278;2023-04-25T01:40:40;16.90;91.10
51863;DHT22;37900;52.996;6.278;2023-04-25T01:43:07;16.90;91.00
51863;DHT22;37900;52.996;6.278;2023-04-25T01:45:34;16.80;91.00
51863;DHT22;37900;52.996;6.278;2023-04-25T01:48:02;16.90;91.00
51863;DHT22;37900;52.996;6.278;2023-04-25T01:50:28;16.80;91.00
51863;DHT22;37900;52.996;6.278;2023-04-25T01:52:55;16.80;90.90
51863;DHT22;37900;52.996;6.278;2023-04-25T01:55:20;16.80;90.90
51863;DHT22;37900;52.996;6.278;2023-04-25T01:57:46;16.80;90.90
51863;DHT22;37900;52.996;6.278;2023-04-25T02:00:12;16.80;90.90
51863;DHT22;37900;52.996;6.278;2023-04-25T02:02:38;16.80;90.90
51863;DHT22;37900;52.996;6.278;2023-04-25T02:05:04;16.80;90.90
51863;DHT22;37900;52.996;6.278;2023-04-25T02:07:30;16.80;90.90
51863;DHT22;37900;52.996;6.278;2023-04-25T02:09:56;16.80;90.80
51863;DHT22;37900;52.996;6.278;2023-04-25T02:12:21;16.80;90.80
51863;DHT22;37900;52.996;6.278;2023-04-25T02:14:47;16.80;90.80
51863;DHT22;37900;52.996;6.278;2023-04-25T02:17:13;16.80;90.80
51863;DHT22;37900;52.996;6.278;2023-04-25T02:19:38;16.80;90.80
51863;DHT22;37900;52.996;6.278;2023-04-25T02:22:04;16.80;90.80
51863;DHT22;37900;52.996;6.278;2023-04-25T02:24:30;16.80;90.80
51863;DHT22;37900;52.996;6.278;2023-04-25T02:26:57;16.80;90.70
51863;DHT22;37900;52.996;6.278;2023-04-25T02:29:23;16.80;91.00
51863;DHT22;37900;52.996;6.278;2023-04-25T02:31:48;16.80;90.70
51863;DHT22;37900;52.996;6.278;2023-04-25T02:34:14;16.80;90.70
51863;DHT22;37900;52.996;6.278;2023-04-25T02:36:40;16.80;90.70
51863;DHT22;37900;52.996;6.278;2023-04-25T02:39:05;16.80;90.70
51863;DHT22;37900;52.996;6.278;2023-04-25T02:41:31;16.80;90.60
51863;DHT22;37900;52.996;6.278;2023-04-25T02:43:56;16.80;90.60
51863;DHT22;37900;52.996;6.278;2023-04-25T02:46:22;16.70;90.60
51863;DHT22;37900;52.996;6.278;2023-04-25T02:48:48;16.70;90.60
51863;DHT22;37900;52.996;6.278;2023-04-25T02:51:14;16.70;90.50
51863;DHT22;37900;52.996;6.278;2023-04-25T02:53:41;16.70;90.50
51863;DHT22;37900;52.996;6.278;2023-04-25T02:56:07;16.70;90.50
51863;DHT22;37900;52.996;6.278;2023-04-25T02:58:33;16.70;90.50
51863;DHT22;37900;52.996;6.278;2023-04-25T03:00:59;16.70;90.50
51863;DHT22;37900;52.996;6.278;2023-04-25T03:03:24;16.70;90.50
51863;DHT22;37900;52.996;6.278;2023-04-25T03:05:50;16.70;90.50
51863;DHT22;37900;52.996;6.278;2023-04-25T03:08:17;16.70;90.50
51863;DHT22;37900;52.996;6.278;2023-04-25T03:10:43;16.70;90.40
51863;DHT22;37900;52.996;6.278;2023-04-25T03:13:09;16.70;90.40
51863;DHT22;37900;52.996;6.278;2023-04-25T03:15:36;16.70;90.40
51863;DHT22;37900;52.996;6.278;2023-04-25T03:18:01;16.70;90.40
51863;DHT22;37900;52.996;6.278;2023-04-25T03:20:27;16.70;90.40
51863;DHT22;37900;52.996;6.278;2023-04-25T03:22:53;16.70;90.40
51863;DHT22;37900;52.996;6.278;2023-04-25T03:25:19;16.70;90.40
51863;DHT22;37900;52.996;6.278;2023-04-25T03:27:45;16.70;90.40
51863;DHT22;37900;52.996;6.278;2023-04-25T03:30:11;16.70;90.30
51863;DHT22;37900;52.996;6.278;2023-04-25T03:32:37;16.70;90.30
51863;DHT22;37900;52.996;6.278;2023-04-25T03:35:03;16.60;90.30
51863;DHT22;37900;52.996;6.278;2023-04-25T03:37:28;16.70;90.30
51863;DHT22;37900;52.996;6.278;2023-04-25T03:39:54;16.70;90.30
51863;DHT22;37900;52.996;6.278;2023-04-25T03:42:20;16.60;90.20
51863;DHT22;37900;52.996;6.278;2023-04-25T03:44:48;16.60;90.20
51863;DHT22;37900;52.996;6.278;2023-04-25T03:47:14;16.60;90.20
51863;DHT22;37900;52.996;6.278;2023-04-25T03:49:41;16.60;90.20
51863;DHT22;37900;52.996;6.278;2023-04-25T03:52:07;16.60;90.20
51863;DHT22;37900;52.996;6.278;2023-04-25T03:54:33;16.60;90.20
51863;DHT22;37900;52.996;6.278;2023-04-25T03:56:58;16.60;90.20
51863;DHT22;37900;52.996;6.278;2023-04-25T03:59:24;16.60;90.20
51863;DHT22;37900;52.996;6.278;2023-04-25T04:01:51;16.60;90.10
51863;DHT22;37900;52.996;6.278;2023-04-25T04:04:17;16.60;90.10
51863;DHT22;37900;52.996;6.278;2023-04-25T04:06:43;16.60;90.10
51863;DHT22;37900;52.996;6.278;2023-04-25T04:09:09;16.60;90.10
51863;DHT22;37900;52.996;6.278;2023-04-25T04:11:37;16.60;90.10
51863;DHT22;37900;52.996;6.278;2023-04-25T04:14:05;16.60;90.10
51863;DHT22;37900;52.996;6.278;2023-04-25T04:16:31;16.60;90.10
51863;DHT22;37900;52.996;6.278;2023-04-25T04:18:57;16.60;90.10
51863;DHT22;37900;52.996;6.278;2023-04-25T04:21:22;16.60;90.10
51863;DHT22;37900;52.996;6.278;2023-04-25T04:23:48;16.60;90.10
51863;DHT22;37900;52.996;6.278;2023-04-25T04:26:14;16.60;90.00
51863;DHT22;37900;52.996;6.278;2023-04-25T04:28:42;16.50;90.00
51863;DHT22;37900;52.996;6.278;2023-04-25T04:31:10;16.50;90.00
51863;DHT22;37900;52.996;6.278;2023-04-25T04:33:36;16.50;90.00
51863;DHT22;37900;52.996;6.278;2023-04-25T04:36:03;16.50;90.00
51863;DHT22;37900;52.996;6.278;2023-04-25T04:38:29;16.50;89.90
51863;DHT22;37900;52.996;6.278;2023-04-25T04:40:55;16.50;90.20
51863;DHT22;37900;52.996;6.278;2023-04-25T04:43:21;16.50;89.90
51863;DHT22;37900;52.996;6.278;2023-04-25T04:45:48;16.50;89.90
51863;DHT22;37900;52.996;6.278;2023-04-25T04:48:16;16.50;89.90
51863;DHT22;37900;52.996;6.278;2023-04-25T04:50:45;16.50;89.90
51863;DHT22;37900;52.996;6.278;2023-04-25T04:53:11;16.50;89.80
51863;DHT22;37900;52.996;6.278;2023-04-25T04:55:37;16.50;89.80
51863;DHT22;37900;52.996;6.278;2023-04-25T04:58:03;16.50;89.70
51863;DHT22;37900;52.996;6.278;2023-04-25T05:00:28;16.50;89.70
51863;DHT22;37900;52.996;6.278;2023-04-25T05:02:58;16.50;89.70
51863;DHT22;37900;52.996;6.278;2023-04-25T05:05:24;16.50;89.70
51863;DHT22;37900;52.996;6.278;2023-04-25T05:07:50;16.50;89.70
51863;DHT22;37900;52.996;6.278;2023-04-25T05:10:17;16.50;89.70
51863;DHT22;37900;52.996;6.278;2023-04-25T05:12:43;16.50;89.60
51863;DHT22;37900;52.996;6.278;2023-04-25T05:15:09;16.50;89.60
51863;DHT22;37900;52.996;6.278;2023-04-25T05:17:35;16.50;89.60
51863;DHT22;37900;52.996;6.278;2023-04-25T05:20:01;16.50;89.60
51863;DHT22;37900;52.996;6.278;2023-04-25T05:22:27;16.50;89.50
51863;DHT22;37900;52.996;6.278;2023-04-25T05:24:53;16.50;89.50
51863;DHT22;37900;52.996;6.278;2023-04-25T05:27:19;16.50;89.50
51863;DHT22;37900;52.996;6.278;2023-04-25T05:29:45;16.40;89.40
51863;DHT22;37900;52.996;6.278;2023-04-25T05:32:11;16.50;89.40
51863;DHT22;37900;52.996;6.278;2023-04-25T05:34:37;16.40;89.30
51863;DHT22;37900;52.996;6.278;2023-04-25T05:37:02;16.40;89.30
51863;DHT22;37900;52.996;6.278;2023-04-25T05:39:28;16.40;89.30
51863;DHT22;37900;52.996;6.278;2023-04-25T05:41:54;16.40;89.30
51863;DHT22;37900;52.996;6.278;2023-04-25T05:44:20;16.40;89.20
51863;DHT22;37900;52.996;6.278;2023-04-25T05:46:46;16.40;89.20
51863;DHT22;37900;52.996;6.278;2023-04-25T05:49:12;16.40;89.20
51863;DHT22;37900;52.996;6.278;2023-04-25T05:51:38;16.40;89.20
51863;DHT22;37900;52.996;6.278;2023-04-25T05:54:04;16.40;89.20
51863;DHT22;37900;52.996;6.278;2023-04-25T05:56:29;16.40;89.30
51863;DHT22;37900;52.996;6.278;2023-04-25T05:58:56;16.40;89.50
51863;DHT22;37900;52.996;6.278;2023-04-25T06:01:22;16.40;89.70
51863;DHT22;37900;52.996;6.278;2023-04-25T06:03:48;16.40;90.00
51863;DHT22;37900;52.996;6.278;2023-04-25T06:06:14;16.50;90.10
51863;DHT22;37900;52.996;6.278;2023-04-25T06:08:40;16.50;90.20
51863;DHT22;37900;52.996;6.278;2023-04-25T06:11:06;16.50;90.30
51863;DHT22;37900;52.996;6.278;2023-04-25T06:13:32;16.50;90.40
51863;DHT22;37900;52.996;6.278;2023-04-25T06:15:58;16.50;90.40
51863;DHT22;37900;52.996;6.278;2023-04-25T06:18:24;16.50;90.50
51863;DHT22;37900;52.996;6.278;2023-04-25T06:20:50;16.50;90.50
51863;DHT22;37900;52.996;6.278;2023-04-25T06:23:15;16.50;90.60
51863;DHT22;37900;52.996;6.278;2023-04-25T06:25:41;16.50;90.60
51863;DHT22;37900;52.996;6.278;2023-04-25T06:28:07;16.50;90.60
51863;DHT22;37900;52.996;6.278;2023-04-25T06:30:32;16.50;90.60
51863;DHT22;37900;52.996;6.278;2023-04-25T06:32:58;16.60;90.60
51863;DHT22;37900;52.996;6.278;2023-04-25T06:35:24;16.50;90.50
51863;DHT22;37900;52.996;6.278;2023-04-25T06:37:50;16.50;90.50
51863;DHT22;37900;52.996;6.278;2023-04-25T06:40:15;16.50;90.50
51863;DHT22;37900;52.996;6.278;2023-04-25T06:42:43;16.50;90.50
51863;DHT22;37900;52.996;6.278;2023-04-25T06:45:09;16.50;90.50
51863;DHT22;37900;52.996;6.278;2023-04-25T06:47:35;16.50;90.50
51863;DHT22;37900;52.996;6.278;2023-04-25T06:50:00;16.50;90.50
51863;DHT22;37900;52.996;6.278;2023-04-25T06:52:26;16.50;90.50
51863;DHT22;37900;52.996;6.278;2023-04-25T06:54:52;16.50;90.50
51863;DHT22;37900;52.996;6.278;2023-04-25T06:57:17;16.50;90.50
51863;DHT22;37900;52.996;6.278;2023-04-25T06:59:43;16.50;90.50
51863;DHT22;37900;52.996;6.278;2023-04-25T07:02:09;16.50;90.50
51863;DHT22;37900;52.996;6.278;2023-04-25T07:04:34;16.50;90.50
51863;DHT22;37900;52.996;6.278;2023-04-25T07:07:00;16.50;90.50
51863;DHT22;37900;52.996;6.278;2023-04-25T07:09:28;16.50;90.50
51863;DHT22;37900;52.996;6.278;2023-04-25T07:11:54;16.50;90.50
51863;DHT22;37900;52.996;6.278;2023-04-25T07:14:19;16.50;90.50
51863;DHT22;37900;52.996;6.278;2023-04-25T07:16:45;16.50;90.50
51863;DHT22;37900;52.996;6.278;2023-04-25T07:19:11;16.50;90.40
51863;DHT22;37900;52.996;6.278;2023-04-25T07:21:37;16.50;90.40
51863;DHT22;37900;52.996;6.278;2023-04-25T07:24:03;16.50;90.40
51863;DHT22;37900;52.996;6.278;2023-04-25T07:26:29;16.50;90.40
51863;DHT22;37900;52.996;6.278;2023-04-25T07:28:55;16.40;90.40
51863;DHT22;37900;52.996;6.278;2023-04-25T07:31:22;16.50;90.40
51863;DHT22;37900;52.996;6.278;2023-04-25T07:33:48;16.50;90.40
51863;DHT22;37900;52.996;6.278;2023-04-25T07:36:13;16.50;90.40
51863;DHT22;37900;52.996;6.278;2023-04-25T07:38:41;16.50;90.40
51863;DHT22;37900;52.996;6.278;2023-04-25T07:41:07;16.40;90.40
51863;DHT22;37900;52.996;6.278;2023-04-25T07:43:32;16.50;90.40
51863;DHT22;37900;52.996;6.278;2023-04-25T07:45:58;16.40;90.40
51863;DHT22;37900;52.996;6.278;2023-04-25T07:48:24;16.40;90.30
51863;DHT22;37900;52.996;6.278;2023-04-25T07:50:50;16.50;90.40
51863;DHT22;37900;52.996;6.278;2023-04-25T07:53:16;16.40;90.30
51863;DHT22;37900;52.996;6.278;2023-04-25T07:55:44;16.40;90.30
51863;DHT22;37900;52.996;6.278;2023-04-25T07:58:11;16.40;90.30
51863;DHT22;37900;52.996;6.278;2023-04-25T08:00:36;16.40;90.30
51863;DHT22;37900;52.996;6.278;2023-04-25T08:03:03;16.40;90.30
51863;DHT22;37900;52.996;6.278;2023-04-25T08:05:29;16.50;90.30
51863;DHT22;37900;52.996;6.278;2023-04-25T08:07:54;16.40;90.30
51863;DHT22;37900;52.996;6.278;2023-04-25T08:10:22;16.40;90.30
51863;DHT22;37900;52.996;6.278;2023-04-25T08:12:48;16.40;90.30
51863;DHT22;37900;52.996;6.278;2023-04-25T08:15:14;16.40;90.30
51863;DHT22;37900;52.996;6.278;2023-04-25T08:17:40;16.40;90.30
51863;DHT22;37900;52.996;6.278;2023-04-25T08:20:07;16.40;90.30
51863;DHT22;37900;52.996;6.278;2023-04-25T08:22:32;16.50;90.30
51863;DHT22;37900;52.996;6.278;2023-04-25T08:24:59;16.40;90.30
51863;DHT22;37900;52.996;6.278;2023-04-25T08:27:25;16.40;90.30
51863;DHT22;37900;52.996;6.278;2023-04-25T08:29:51;16.40;90.30
51863;DHT22;37900;52.996;6.278;2023-04-25T08:32:17;16.50;90.30
51863;DHT22;37900;52.996;6.278;2023-04-25T08:34:42;16.40;90.30
51863;DHT22;37900;52.996;6.278;2023-04-25T08:37:09;16.50;90.30
51863;DHT22;37900;52.996;6.278;2023-04-25T08:39:38;16.50;90.30
51863;DHT22;37900;52.996;6.278;2023-04-25T08:42:06;16.40;90.30
51863;DHT22;37900;52.996;6.278;2023-04-25T08:44:36;16.40;90.20
51863;DHT22;37900;52.996;6.278;2023-04-25T08:47:03;16.40;90.30
51863;DHT22;37900;52.996;6.278;2023-04-25T08:49:32;16.40;90.20
51863;DHT22;37900;52.996;6.278;2023-04-25T08:52:00;16.40;90.30
51863;DHT22;37900;52.996;6.278;2023-04-25T08:54:31;16.40;90.20
51863;DHT22;37900;52.996;6.278;2023-04-25T08:56:57;16.40;90.20
51863;DHT22;37900;52.996;6.278;2023-04-25T08:59:28;16.40;90.20
51863;DHT22;37900;52.996;6.278;2023-04-25T09:01:54;16.40;90.20
51863;DHT22;37900;52.996;6.278;2023-04-25T09:04:20;16.50;90.30
51863;DHT22;37900;52.996;6.278;2023-04-25T09:06:47;16.40;90.20
51863;DHT22;37900;52.996;6.278;2023-04-25T09:09:12;16.40;90.20
51863;DHT22;37900;52.996;6.278;2023-04-25T09:11:39;16.40;90.20
51863;DHT22;37900;52.996;6.278;2023-04-25T09:14:18;16.40;90.50
51863;DHT22;37900;52.996;6.278;2023-04-25T09:19:31;16.40;90.20
51863;DHT22;37900;52.996;6.278;2023-04-25T09:21:59;16.40;90.20
51863;DHT22;37900;52.996;6.278;2023-04-25T09:24:33;16.40;90.20
51863;DHT22;37900;52.996;6.278;2023-04-25T09:27:01;16.40;90.20
51863;DHT22;37900;52.996;6.278;2023-04-25T09:29:33;16.40;90.20
51863;DHT22;37900;52.996;6.278;2023-04-25T09:32:18;16.40;90.20
51863;DHT22;37900;52.996;6.278;2023-04-25T09:34:50;16.40;90.20
51863;DHT22;37900;52.996;6.278;2023-04-25T09:37:23;16.40;90.20
51863;DHT22;37900;52.996;6.278;2023-04-25T09:39:52;16.40;90.20
51863;DHT22;37900;52.996;6.278;2023-04-25T09:42:22;16.40;90.40
51863;DHT22;37900;52.996;6.278;2023-04-25T09:44:52;16.40;90.20
51863;DHT22;37900;52.996;6.278;2023-04-25T09:47:18;16.40;90.20
51863;DHT22;37900;52.996;6.278;2023-04-25T09:49:46;16.40;90.20
51863;DHT22;37900;52.996;6.278;2023-04-25T09:52:17;16.40;90.20
51863;DHT22;37900;52.996;6.278;2023-04-25T09:54:47;16.30;90.10
51863;DHT22;37900;52.996;6.278;2023-04-25T09:59:46;16.40;90.10
51863;DHT22;37900;52.996;6.278;2023-04-25T10:02:14;16.40;90.10
51863;DHT22;37900;52.996;6.278;2023-04-25T10:04:41;16.40;90.20
51863;DHT22;37900;52.996;6.278;2023-04-25T10:07:08;16.40;90.10
51863;DHT22;37900;52.996;6.278;2023-04-25T10:09:37;16.40;90.10
51863;DHT22;37900;52.996;6.278;2023-04-25T10:12:03;16.30;90.10
51863;DHT22;37900;52.996;6.278;2023-04-25T10:14:31;16.30;90.10
51863;DHT22;37900;52.996;6.278;2023-04-25T10:16:58;16.40;90.10
51863;DHT22;37900;52.996;6.278;2023-04-25T10:19:24;16.40;90.10
51863;DHT22;37900;52.996;6.278;2023-04-25T10:22:05;16.40;90.10
51863;DHT22;37900;52.996;6.278;2023-04-25T10:24:32;16.30;90.10
51863;DHT22;37900;52.996;6.278;2023-04-25T10:26:58;16.30;90.10
51863;DHT22;37900;52.996;6.278;2023-04-25T10:29:26;16.40;90.10
51863;DHT22;37900;52.996;6.278;2023-04-25T10:31:52;16.30;90.10
51863;DHT22;37900;52.996;6.278;2023-04-25T10:34:18;16.30;90.10
51863;DHT22;37900;52.996;6.278;2023-04-25T10:36:53;16.30;90.10
51863;DHT22;37900;52.996;6.278;2023-04-25T10:39:26;16.30;90.10
51863;DHT22;37900;52.996;6.278;2023-04-25T10:41:55;16.30;90.20
51863;DHT22;37900;52.996;6.278;2023-04-25T10:44:21;16.40;90.20
51863;DHT22;37900;52.996;6.278;2023-04-25T10:46:47;16.40;90.30
51863;DHT22;37900;52.996;6.278;2023-04-25T10:49:41;16.40;90.30
51863;DHT22;37900;52.996;6.278;2023-04-25T10:52:16;16.50;90.40
51863;DHT22;37900;52.996;6.278;2023-04-25T10:54:46;16.50;90.30
51863;DHT22;37900;52.996;6.278;2023-04-25T11:00:20;16.50;90.30
51863;DHT22;37900;52.996;6.278;2023-04-25T11:02:52;16.50;90.30
51863;DHT22;37900;52.996;6.278;2023-04-25T11:05:29;16.50;90.30
51863;DHT22;37900;52.996;6.278;2023-04-25T11:07:55;16.50;90.30
51863;DHT22;37900;52.996;6.278;2023-04-25T11:10:29;16.50;90.40
51863;DHT22;37900;52.996;6.278;2023-04-25T11:12:56;16.50;90.40
51863;DHT22;37900;52.996;6.278;2023-04-25T11:15:22;16.50;90.40
51863;DHT22;37900;52.996;6.278;2023-04-25T11:17:50;16.50;90.40
51863;DHT22;37900;52.996;6.278;2023-04-25T11:20:16;16.50;90.40
51863;DHT22;37900;52.996;6.278;2023-04-25T11:22:44;16.50;90.40
51863;DHT22;37900;52.996;6.278;2023-04-25T11:25:12;16.50;90.50
51863;DHT22;37900;52.996;6.278;2023-04-25T11:27:49;16.50;90.50
51863;DHT22;37900;52.996;6.278;2023-04-25T11:30:16;16.50;90.60
51863;DHT22;37900;52.996;6.278;2023-04-25T11:32:42;16.50;90.60
51863;DHT22;37900;52.996;6.278;2023-04-25T11:35:09;16.60;90.60
51863;DHT22;37900;52.996;6.278;2023-04-25T11:37:36;16.60;90.60
51863;DHT22;37900;52.996;6.278;2023-04-25T11:40:05;16.60;90.60
51863;DHT22;37900;52.996;6.278;2023-04-25T11:42:44;16.60;90.60
51863;DHT22;37900;52.996;6.278;2023-04-25T11:45:11;16.60;90.50
51863;DHT22;37900;52.996;6.278;2023-04-25T11:47:37;16.60;90.50
51863;DHT22;37900;52.996;6.278;2023-04-25T11:50:05;16.60;90.50
51863;DHT22;37900;52.996;6.278;2023-04-25T11:52:42;16.50;90.50
51863;DHT22;37900;52.996;6.278;2023-04-25T11:57:37;16.50;90.40
51863;DHT22;37900;52.996;6.278;2023-04-25T12:00:14;16.50;90.50
51863;DHT22;37900;52.996;6.278;2023-04-25T12:02:47;16.50;90.40
51863;DHT22;37900;52.996;6.278;2023-04-25T12:05:14;16.50;90.40
51863;DHT22;37900;52.996;6.278;2023-04-25T12:07:43;16.50;90.40
51863;DHT22;37900;52.996;6.278;2023-04-25T12:10:14;16.50;90.40
51863;DHT22;37900;52.996;6.278;2023-04-25T12:12:48;16.50;90.30
51863;DHT22;37900;52.996;6.278;2023-04-25T12:15:24;16.50;90.30
51863;DHT22;37900;52.996;6.278;2023-04-25T12:17:53;16.50;90.40
51863;DHT22;37900;52.996;6.278;2023-04-25T12:20:21;16.50;90.40
51863;DHT22;37900;52.996;6.278;2023-04-25T12:22:49;16.50;90.40
51863;DHT22;37900;52.996;6.278;2023-04-25T12:25:43;16.60;90.50
51863;DHT22;37900;52.996;6.278;2023-04-25T12:28:21;16.60;90.40
51863;DHT22;37900;52.996;6.278;2023-04-25T12:33:30;16.60;90.30
51863;DHT22;37900;52.996;6.278;2023-04-25T12:35:57;16.60;90.30
51863;DHT22;37900;52.996;6.278;2023-04-25T12:38:31;16.60;90.30
51863;DHT22;37900;52.996;6.278;2023-04-25T12:40:57;16.60;90.30
51863;DHT22;37900;52.996;6.278;2023-04-25T12:43:24;16.60;90.30
51863;DHT22;37900;52.996;6.278;2023-04-25T12:45:54;16.60;90.30
51863;DHT22;37900;52.996;6.278;2023-04-25T12:48:21;16.60;90.30
51863;DHT22;37900;52.996;6.278;2023-04-25T12:50:47;16.60;90.20
51863;DHT22;37900;52.996;6.278;2023-04-25T12:53:21;16.60;90.20
51863;DHT22;37900;52.996;6.278;2023-04-25T12:55:48;16.60;90.20
51863;DHT22;37900;52.996;6.278;2023-04-25T12:58:18;16.50;90.20
51863;DHT22;37900;52.996;6.278;2023-04-25T13:00:45;16.60;90.20
51863;DHT22;37900;52.996;6.278;2023-04-25T13:03:11;16.60;90.20
51863;DHT22;37900;52.996;6.278;2023-04-25T13:05:38;16.60;90.20
51863;DHT22;37900;52.996;6.278;2023-04-25T13:08:04;16.50;90.20
51863;DHT22;37900;52.996;6.278;2023-04-25T13:10:30;16.50;90.20
51863;DHT22;37900;52.996;6.278;2023-04-25T13:12:56;16.60;90.30
51863;DHT22;37900;52.996;6.278;2023-04-25T13:15:22;16.60;90.30
51863;DHT22;37900;52.996;6.278;2023-04-25T13:17:48;16.60;90.30
51863;DHT22;37900;52.996;6.278;2023-04-25T13:20:14;16.60;90.30
51863;DHT22;37900;52.996;6.278;2023-04-25T13:22:42;16.60;90.20
51863;DHT22;37900;52.996;6.278;2023-04-25T13:25:08;16.60;90.20
51863;DHT22;37900;52.996;6.278;2023-04-25T13:27:35;16.70;90.30
51863;DHT22;37900;52.996;6.278;2023-04-25T13:30:03;16.60;90.20
51863;DHT22;37900;52.996;6.278;2023-04-25T13:32:33;16.60;90.20
51863;DHT22;37900;52.996;6.278;2023-04-25T13:34:59;16.60;90.20
51863;DHT22;37900;52.996;6.278;2023-04-25T13:37:26;16.60;90.20
51863;DHT22;37900;52.996;6.278;2023-04-25T13:39:51;16.60;90.20
51863;DHT22;37900;52.996;6.278;2023-04-25T13:42:17;16.60;90.20
51863;DHT22;37900;52.996;6.278;2023-04-25T13:44:43;16.60;90.20
51863;DHT22;37900;52.996;6.278;2023-04-25T13:47:09;16.60;90.20
51863;DHT22;37900;52.996;6.278;2023-04-25T13:49:34;16.60;90.10
51863;DHT22;37900;52.996;6.278;2023-04-25T13:52:00;16.60;90.10
51863;DHT22;37900;52.996;6.278;2023-04-25T13:54:26;16.60;90.10
51863;DHT22;37900;52.996;6.278;2023-04-25T13:56:52;16.60;90.10
51863;DHT22;37900;52.996;6.278;2023-04-25T13:59:20;16.60;90.10
51863;DHT22;37900;52.996;6.278;2023-04-25T14:01:46;16.60;90.10
51863;DHT22;37900;52.996;6.278;2023-04-25T14:04:12;16.60;90.10
51863;DHT22;37900;52.996;6.278;2023-04-25T14:06:37;16.60;90.10
51863;DHT22;37900;52.996;6.278;2023-04-25T14:09:04;16.60;90.10
51863;DHT22;37900;52.996;6.278;2023-04-25T14:11:30;16.50;90.20
51863;DHT22;37900;52.996;6.278;2023-04-25T14:13:55;16.60;90.30
51863;DHT22;37900;52.996;6.278;2023-04-25T14:16:21;16.60;90.30
51863;DHT22;37900;52.996;6.278;2023-04-25T14:18:48;16.60;90.30
51863;DHT22;37900;52.996;6.278;2023-04-25T14:21:14;16.70;90.30
51863;DHT22;37900;52.996;6.278;2023-04-25T14:23:39;16.70;90.30
51863;DHT22;37900;52.996;6.278;2023-04-25T14:26:05;16.70;90.30
51863;DHT22;37900;52.996;6.278;2023-04-25T14:28:31;16.70;90.30
51863;DHT22;37900;52.996;6.278;2023-04-25T14:30:57;16.70;90.30
51863;DHT22;37900;52.996;6.278;2023-04-25T14:33:23;16.70;90.30
51863;DHT22;37900;52.996;6.278;2023-04-25T14:35:49;16.70;90.30
51863;DHT22;37900;52.996;6.278;2023-04-25T14:38:14;16.70;90.40
51863;DHT22;37900;52.996;6.278;2023-04-25T14:40:40;16.70;90.40
51863;DHT22;37900;52.996;6.278;2023-04-25T14:43:06;16.70;90.40
51863;DHT22;37900;52.996;6.278;2023-04-25T14:45:33;16.70;90.40
51863;DHT22;37900;52.996;6.278;2023-04-25T14:47:59;16.70;90.40
51863;DHT22;37900;52.996;6.278;2023-04-25T14:50:25;16.70;90.50
51863;DHT22;37900;52.996;6.278;2023-04-25T14:52:50;16.70;90.50
51863;DHT22;37900;52.996;6.278;2023-04-25T14:55:18;16.70;90.50
51863;DHT22;37900;52.996;6.278;2023-04-25T14:57:43;16.70;90.50
51863;DHT22;37900;52.996;6.278;2023-04-25T15:00:10;16.70;90.50
51863;DHT22;37900;52.996;6.278;2023-04-25T15:02:38;16.70;90.50
51863;DHT22;37900;52.996;6.278;2023-04-25T15:05:05;16.70;90.50
51863;DHT22;37900;52.996;6.278;2023-04-25T15:07:30;16.70;90.50
51863;DHT22;37900;52.996;6.278;2023-04-25T15:09:56;16.70;90.60
51863;DHT22;37900;52.996;6.278;2023-04-25T15:12:22;16.70;90.60
51863;DHT22;37900;52.996;6.278;2023-04-25T15:14:48;16.70;90.60
51863;DHT22;37900;52.996;6.278;2023-04-25T15:17:14;16.70;90.60
51863;DHT22;37900;52.996;6.278;2023-04-25T15:19:40;16.70;90.60
51863;DHT22;37900;52.996;6.278;2023-04-25T15:22:06;16.70;90.60
51863;DHT22;37900;52.996;6.278;2023-04-25T15:24:32;16.80;90.70
51863;DHT22;37900;52.996;6.278;2023-04-25T15:26:58;16.70;90.70
51863;DHT22;37900;52.996;6.278;2023-04-25T15:29:24;16.80;90.70
51863;DHT22;37900;52.996;6.278;2023-04-25T15:31:51;16.80;90.70
51863;DHT22;37900;52.996;6.278;2023-04-25T15:34:17;16.80;90.80
51863;DHT22;37900;52.996;6.278;2023-04-25T15:36:43;16.80;90.80
51863;DHT22;37900;52.996;6.278;2023-04-25T15:39:09;16.80;90.80
51863;DHT22;37900;52.996;6.278;2023-04-25T15:41:36;16.80;90.80